createdAt,value
2022-10-01T00:01:04.111Z,18.60
2022-10-01T00:03:40.058Z,16.88
2022-10-01T00:06:10.769Z,16.98
2022-10-01T00:08:40.047Z,12.68
2022-10-01T00:11:11.225Z,13.77
2022-10-01T00:13:39.384Z,10.05
2022-10-01T00:16:08.043Z,11.20
2022-10-01T00:18:36.610Z,12.48
2022-10-01T00:21:08.711Z,13.63
2022-10-01T00:23:36.618Z,14.02
2022-10-01T00:26:14.180Z,14.80
2022-10-01T00:28:42.769Z,12.32
2022-10-01T00:31:10.613Z,10.55
2022-10-01T00:33:38.382Z,9.20
2022-10-01T00:36:08.053Z,8.18
2022-10-01T00:38:35.629Z,8.68
2022-10-01T00:41:03.988Z,8.35
2022-10-01T00:43:35.296Z,12.07
2022-10-01T00:46:06.852Z,8.70
2022-10-01T00:48:40.110Z,7.75
2022-10-01T00:51:07.582Z,7.50
2022-10-01T00:53:35.105Z,7.95
2022-10-01T00:56:02.788Z,8.27
2022-10-01T00:58:30.055Z,8.68
2022-10-01T01:00:58.855Z,10.07
2022-10-01T01:03:26.965Z,9.07
2022-10-01T01:05:54.350Z,10.07
2022-10-01T01:08:21.596Z,10.20
2022-10-01T01:10:57.890Z,11.35
2022-10-01T01:13:33.131Z,11.93
2022-10-01T01:16:09.976Z,12.18
2022-10-01T01:18:45.322Z,9.80
2022-10-01T01:21:21.615Z,12.00
2022-10-01T01:24:15.685Z,8.60
2022-10-01T01:26:55.269Z,8.55
2022-10-01T01:29:29.434Z,9.13
2022-10-01T01:32:02.920Z,10.85
2022-10-01T01:34:33.401Z,10.23
2022-10-01T01:37:06.405Z,13.88
2022-10-01T01:39:35.087Z,16.45
2022-10-01T01:42:07.128Z,13.07
2022-10-01T01:44:39.782Z,13.27
2022-10-01T01:47:09.205Z,12.48
2022-10-01T01:49:37.491Z,11.40
2022-10-01T01:52:08.807Z,9.98
2022-10-01T01:54:36.959Z,8.38
2022-10-01T01:57:04.645Z,10.35
2022-10-01T01:59:33.209Z,8.90
2022-10-01T02:02:02.504Z,13.60
2022-10-01T02:04:34.553Z,14.15
2022-10-01T02:07:32.565Z,11.45
2022-10-01T02:10:11.570Z,12.23
2022-10-01T02:12:51.528Z,14.00
2022-10-01T02:15:25.758Z,14.73
2022-10-01T02:18:03.604Z,15.60
2022-10-01T02:20:36.820Z,10.75
2022-10-01T02:23:08.074Z,13.30
2022-10-01T02:25:40.059Z,17.55
2022-10-01T02:28:12.016Z,16.10
2022-10-01T02:30:41.167Z,19.48
2022-10-01T02:33:13.853Z,16.63
2022-10-01T02:35:44.262Z,17.13
2022-10-01T02:38:15.644Z,13.15
2022-10-01T02:40:45.054Z,17.98
2022-10-01T02:43:18.653Z,10.60
2022-10-01T02:45:50.707Z,9.73
2022-10-01T02:48:19.772Z,11.05
2022-10-01T02:50:51.528Z,11.02
2022-10-01T02:53:26.247Z,8.52
2022-10-01T02:55:55.342Z,8.85
2022-10-01T02:58:23.538Z,8.70
2022-10-01T03:00:50.847Z,9.32
2022-10-01T03:03:19.656Z,9.20
2022-10-01T03:05:47.632Z,13.68
2022-10-01T03:08:14.867Z,11.82
2022-10-01T03:10:46.015Z,9.32
2022-10-01T03:15:41.944Z,8.70
2022-10-01T03:18:09.252Z,12.20
2022-10-01T03:20:38.335Z,10.80
2022-10-01T03:23:05.607Z,10.38
2022-10-01T03:25:32.846Z,8.38
2022-10-01T03:28:00.897Z,8.05
2022-10-01T03:30:28.289Z,9.95
2022-10-01T03:32:55.524Z,8.75
2022-10-01T03:35:23.107Z,7.93
2022-10-01T03:37:51.791Z,7.18
2022-10-01T03:40:18.927Z,7.60
2022-10-01T03:42:46.689Z,6.88
2022-10-01T03:45:14.166Z,7.18
2022-10-01T03:47:41.488Z,7.82
2022-10-01T03:50:09.605Z,7.68
2022-10-01T03:52:36.853Z,6.43
2022-10-01T03:55:06.530Z,6.68
2022-10-01T03:57:34.450Z,6.50
2022-10-01T04:00:02.029Z,5.85
2022-10-01T04:02:29.427Z,5.80
2022-10-01T04:04:57.113Z,5.82
2022-10-01T04:07:24.295Z,7.35
2022-10-01T04:09:51.492Z,8.15
2022-10-01T04:12:20.510Z,9.55
2022-10-01T04:14:47.732Z,6.63
2022-10-01T04:17:15.094Z,6.35
2022-10-01T04:19:42.565Z,7.40
2022-10-01T04:22:09.802Z,9.15
2022-10-01T04:24:37.183Z,9.90
2022-10-01T04:27:05.012Z,10.73
2022-10-01T04:29:38.027Z,8.00
2022-10-01T04:32:07.879Z,7.28
2022-10-01T04:34:35.409Z,6.53
2022-10-01T04:37:02.585Z,5.10
2022-10-01T04:39:30.446Z,6.03
2022-10-01T04:41:57.723Z,5.55
2022-10-01T04:44:24.875Z,6.40
2022-10-01T04:46:53.956Z,8.20
2022-10-01T04:49:21.353Z,7.45
2022-10-01T04:51:49.043Z,6.05
2022-10-01T04:54:16.267Z,6.55
2022-10-01T04:56:43.455Z,5.72
2022-10-01T04:59:11.113Z,6.43
2022-10-01T05:01:39.057Z,5.45
2022-10-01T05:04:08.236Z,5.45
2022-10-01T05:06:35.854Z,5.47
2022-10-01T05:09:03.524Z,8.13
2022-10-01T05:11:31.064Z,6.75
2022-10-01T05:13:59.088Z,6.85
2022-10-01T05:16:27.471Z,8.50
2022-10-01T05:18:54.747Z,7.35
2022-10-01T05:21:23.653Z,8.70
2022-10-01T05:23:53.940Z,8.05
2022-10-01T05:26:21.629Z,9.27
2022-10-01T05:28:49.407Z,8.05
2022-10-01T05:31:19.091Z,8.68
2022-10-01T05:33:46.774Z,13.07
2022-10-01T05:36:14.356Z,15.18
2022-10-01T05:38:43.170Z,15.15
2022-10-01T05:41:10.438Z,15.52
2022-10-01T05:43:37.995Z,16.30
2022-10-01T05:46:05.863Z,17.38
2022-10-01T05:48:33.283Z,19.25
2022-10-01T05:51:01.296Z,17.73
2022-10-01T05:53:28.526Z,18.23
2022-10-01T05:55:59.053Z,17.45
2022-10-01T05:58:27.083Z,16.05
2022-10-01T06:00:55.457Z,15.30
2022-10-01T06:03:22.819Z,15.05
2022-10-01T06:05:50.994Z,13.77
2022-10-01T06:08:18.344Z,13.93
2022-10-01T06:10:45.618Z,13.88
2022-10-01T06:13:14.788Z,13.55
2022-10-01T06:15:42.062Z,14.25
2022-10-01T06:18:11.595Z,13.68
2022-10-01T06:20:40.814Z,13.40
2022-10-01T06:23:12.900Z,13.50
2022-10-01T06:25:41.781Z,13.52
2022-10-01T06:28:11.402Z,13.88
2022-10-01T06:30:40.428Z,14.48
2022-10-01T06:33:11.019Z,14.43
2022-10-01T06:35:41.859Z,15.68
2022-10-01T06:38:09.936Z,13.88
2022-10-01T06:40:37.862Z,14.38
2022-10-01T06:43:05.810Z,14.23
2022-10-01T06:45:37.050Z,16.35
2022-10-01T06:48:06.320Z,14.52
2022-10-01T06:50:34.970Z,13.18
2022-10-01T06:53:02.583Z,14.32
2022-10-01T06:55:32.485Z,13.70
2022-10-01T06:58:01.542Z,14.63
2022-10-01T07:00:30.810Z,13.18
2022-10-01T07:02:58.749Z,12.98
2022-10-01T07:05:29.705Z,13.63
2022-10-01T07:07:57.008Z,12.65
2022-10-01T07:10:24.467Z,9.93
2022-10-01T07:12:52.272Z,11.43
2022-10-01T07:15:21.411Z,10.07
2022-10-01T07:17:50.402Z,10.65
2022-10-01T07:20:20.124Z,10.75
2022-10-01T07:22:50.171Z,10.85
2022-10-01T07:25:17.586Z,10.05
2022-10-01T07:27:45.253Z,9.85
2022-10-01T07:30:12.784Z,9.38
2022-10-01T07:32:43.150Z,10.10
2022-10-01T07:35:10.957Z,9.48
2022-10-01T07:37:38.148Z,9.55
2022-10-01T07:40:08.365Z,9.70
2022-10-01T07:42:36.075Z,9.50
2022-10-01T07:45:03.537Z,9.73
2022-10-01T07:47:34.078Z,8.35
2022-10-01T07:50:02.018Z,9.13
2022-10-01T07:52:29.640Z,8.68
2022-10-01T07:54:57.661Z,9.27
2022-10-01T07:57:27.682Z,7.85
2022-10-01T07:59:56.166Z,8.63
2022-10-01T08:02:23.621Z,7.97
2022-10-01T08:04:58.082Z,8.65
2022-10-01T08:07:25.383Z,7.75
2022-10-01T08:10:03.606Z,7.18
2022-10-01T08:12:46.748Z,6.55
2022-10-01T08:15:19.405Z,6.85
2022-10-01T08:17:46.927Z,6.15
2022-10-01T08:20:27.042Z,6.85
2022-10-01T08:23:13.003Z,7.20
2022-10-01T08:25:44.529Z,6.07
2022-10-01T08:28:14.327Z,6.65
2022-10-01T08:30:59.186Z,6.47
2022-10-01T08:33:45.467Z,5.97
2022-10-01T08:36:15.367Z,6.10
2022-10-01T08:38:45.711Z,5.55
2022-10-01T08:41:33.435Z,5.88
2022-10-01T08:44:18.873Z,5.35
2022-10-01T08:46:47.750Z,5.53
2022-10-01T08:49:21.200Z,5.55
2022-10-01T08:51:54.530Z,4.80
2022-10-01T08:54:30.957Z,4.72
2022-10-01T08:57:01.305Z,5.35
2022-10-01T08:59:38.441Z,4.97
2022-10-01T09:02:19.444Z,5.50
2022-10-01T09:04:49.179Z,4.80
2022-10-01T09:07:30.511Z,4.65
2022-10-01T09:10:16.729Z,5.03
2022-10-01T09:12:58.906Z,4.57
2022-10-01T09:15:34.379Z,4.13
2022-10-01T09:18:14.939Z,3.70
2022-10-01T09:20:47.755Z,4.10
2022-10-01T09:23:22.589Z,4.00
2022-10-01T09:25:50.842Z,3.75
2022-10-01T09:28:21.633Z,4.13
2022-10-01T09:30:56.787Z,4.15
2022-10-01T09:33:29.768Z,3.80
2022-10-01T09:36:05.880Z,4.18
2022-10-01T09:38:38.840Z,4.07
2022-10-01T09:41:08.497Z,4.13
2022-10-01T09:43:39.808Z,4.10
2022-10-01T09:46:12.374Z,4.10
2022-10-01T09:48:48.002Z,3.83
2022-10-01T09:51:19.304Z,3.75
2022-10-01T09:53:54.980Z,3.88
2022-10-01T09:56:28.851Z,3.45
2022-10-01T09:59:01.755Z,4.07
2022-10-01T10:01:42.157Z,3.97
2022-10-01T10:04:10.374Z,3.47
2022-10-01T10:06:38.921Z,3.50
2022-10-01T10:09:16.457Z,3.45
2022-10-01T10:11:45.221Z,3.30
2022-10-01T10:14:17.676Z,3.15
2022-10-01T10:16:48.877Z,3.13
2022-10-01T10:19:21.713Z,3.22
2022-10-01T10:21:51.556Z,2.95
2022-10-01T10:24:25.719Z,3.03
2022-10-01T10:26:59.091Z,3.15
2022-10-01T10:29:28.444Z,2.92
2022-10-01T10:31:59.040Z,3.10
2022-10-01T10:34:32.956Z,3.30
2022-10-01T10:37:03.411Z,2.78
2022-10-01T10:39:35.058Z,2.50
2022-10-01T10:44:33.071Z,2.30
2022-10-01T10:47:05.271Z,2.38
2022-10-01T10:49:38.600Z,2.10
2022-10-01T10:52:19.560Z,2.63
2022-10-01T10:54:48.928Z,1.90
2022-10-01T10:57:20.179Z,1.85
2022-10-01T10:59:56.484Z,1.85
2022-10-01T11:02:27.024Z,1.50
2022-10-01T11:04:55.614Z,1.80
2022-10-01T11:07:24.911Z,1.92
2022-10-01T11:10:08.386Z,2.28
2022-10-01T11:12:49.360Z,2.13
2022-10-01T11:15:35.893Z,2.22
2022-10-01T11:18:25.564Z,2.55
2022-10-01T11:21:04.777Z,2.90
2022-10-01T11:23:47.868Z,2.70
2022-10-01T11:26:24.287Z,2.50
2022-10-01T11:29:05.961Z,2.50
2022-10-01T11:31:39.290Z,2.60
2022-10-01T11:34:37.294Z,2.60
2022-10-01T11:37:11.773Z,2.65
2022-10-01T11:39:42.144Z,2.33
2022-10-01T11:42:13.428Z,2.50
2022-10-01T11:44:45.374Z,2.80
2022-10-01T11:47:17.333Z,2.90
2022-10-01T11:49:54.254Z,2.45
2022-10-01T11:52:31.902Z,3.20
2022-10-01T11:55:07.001Z,2.70
2022-10-01T11:57:34.362Z,2.88
2022-10-01T12:00:07.722Z,2.63
2022-10-01T12:02:46.134Z,2.50
2022-10-01T12:05:19.268Z,2.80
2022-10-01T12:07:53.570Z,2.60
2022-10-01T12:10:35.182Z,2.80
2022-10-01T12:13:08.942Z,2.58
2022-10-01T12:15:43.710Z,2.85
2022-10-01T12:18:18.502Z,2.65
2022-10-01T12:20:50.638Z,3.05
2022-10-01T12:23:22.154Z,2.60
2022-10-01T12:26:01.017Z,3.28
2022-10-01T12:28:33.751Z,2.72
2022-10-01T12:31:08.433Z,3.10
2022-10-01T12:34:00.567Z,3.13
2022-10-01T12:36:40.598Z,2.83
2022-10-01T12:39:24.338Z,2.95
2022-10-01T12:42:05.590Z,2.42
2022-10-01T12:44:56.264Z,3.05
2022-10-01T12:47:35.997Z,2.83
2022-10-01T12:50:17.595Z,2.65
2022-10-01T12:52:57.988Z,2.65
2022-10-01T12:55:45.649Z,2.83
2022-10-01T12:58:24.761Z,2.40
2022-10-01T13:01:00.453Z,2.33
2022-10-01T13:03:49.107Z,2.65
2022-10-01T13:06:32.942Z,3.03
2022-10-01T13:09:15.369Z,2.83
2022-10-01T13:12:16.772Z,2.78
2022-10-01T13:14:46.345Z,2.97
2022-10-01T13:17:21.537Z,2.60
2022-10-01T13:19:58.534Z,2.90
2022-10-01T13:22:35.211Z,2.83
2022-10-01T13:25:21.785Z,2.70
2022-10-01T13:27:58.990Z,2.50
2022-10-01T13:30:33.401Z,2.50
2022-10-01T13:33:01.351Z,2.50
2022-10-01T13:35:35.738Z,2.78
2022-10-01T13:38:15.120Z,2.38
2022-10-01T13:40:45.178Z,2.30
2022-10-01T13:43:18.286Z,2.45
2022-10-01T13:45:47.303Z,2.63
2022-10-01T13:48:19.397Z,2.70
2022-10-01T13:50:57.273Z,2.95
2022-10-01T13:53:26.327Z,2.83
2022-10-01T13:55:56.240Z,2.35
2022-10-01T13:58:32.090Z,2.70
2022-10-01T14:01:02.333Z,2.55
2022-10-01T14:03:42.308Z,2.30
2022-10-01T14:06:17.499Z,2.40
2022-10-01T14:08:51.108Z,2.60
2022-10-01T14:11:25.028Z,2.30
2022-10-01T14:13:53.133Z,2.38
2022-10-01T14:16:21.059Z,2.25
2022-10-01T14:18:50.014Z,2.30
2022-10-01T14:21:35.272Z,2.38
2022-10-01T14:24:16.826Z,2.30
2022-10-01T14:26:52.050Z,2.10
2022-10-01T14:29:33.837Z,2.97
2022-10-01T14:32:12.545Z,2.60
2022-10-01T14:34:52.784Z,3.22
2022-10-01T14:37:21.076Z,3.22
2022-10-01T14:40:01.577Z,2.47
2022-10-01T14:42:30.301Z,1.90
2022-10-01T14:44:57.792Z,1.63
2022-10-01T14:47:26.315Z,1.40
2022-10-01T14:49:54.868Z,1.95
2022-10-01T14:52:25.052Z,2.35
2022-10-01T14:54:59.453Z,2.40
2022-10-01T14:57:33.606Z,2.08
2022-10-01T15:00:04.552Z,2.20
2022-10-01T15:02:32.666Z,2.30
2022-10-01T15:05:00.185Z,2.40
2022-10-01T15:07:34.890Z,2.55
2022-10-01T15:10:06.965Z,2.65
2022-10-01T15:12:43.787Z,2.65
2022-10-01T15:15:22.481Z,2.40
2022-10-01T15:20:18.522Z,2.42
2022-10-01T15:22:49.323Z,2.25
2022-10-01T15:25:21.798Z,2.00
2022-10-01T15:27:51.702Z,2.25
2022-10-01T15:30:19.154Z,1.70
2022-10-01T15:32:48.481Z,2.15
2022-10-01T15:35:22.014Z,1.98
2022-10-01T15:37:50.761Z,1.30
2022-10-01T15:40:27.921Z,1.63
2022-10-01T15:43:24.237Z,1.30
2022-10-01T15:46:17.476Z,1.15
2022-10-01T15:48:45.720Z,1.40
2022-10-01T15:51:19.918Z,1.02
2022-10-01T15:53:47.429Z,1.35
2022-10-01T15:56:20.785Z,1.63
2022-10-01T15:58:54.723Z,1.70
2022-10-01T16:01:25.330Z,1.80
2022-10-01T16:03:56.100Z,2.30
2022-10-01T16:06:27.469Z,2.50
2022-10-01T16:09:01.824Z,2.08
2022-10-01T16:11:30.511Z,2.30
2022-10-01T16:14:28.377Z,5.60
2022-10-01T16:17:26.219Z,4.47
2022-10-01T16:22:25.280Z,9.57
2022-10-01T16:24:54.090Z,7.05
2022-10-01T16:27:23.686Z,3.28
2022-10-01T16:29:55.347Z,3.35
2022-10-01T16:32:23.194Z,17.40
2022-10-01T16:34:50.747Z,8.90
2022-10-01T16:37:18.671Z,3.78
2022-10-01T16:39:46.501Z,3.58
2022-10-01T16:42:24.256Z,4.75
2022-10-01T16:44:53.672Z,14.82
2022-10-01T16:47:20.945Z,19.10
2022-10-01T16:49:50.316Z,11.73
2022-10-01T16:52:18.270Z,37.83
2022-10-01T16:54:45.958Z,30.00
2022-10-01T16:57:13.535Z,22.45
2022-10-01T16:59:41.373Z,12.65
2022-10-01T17:02:12.742Z,34.58
2022-10-01T17:04:40.576Z,20.30
2022-10-01T17:07:08.275Z,12.45
2022-10-01T17:09:35.688Z,4.07
2022-10-01T17:12:03.105Z,26.88
2022-10-01T17:14:30.951Z,5.93
2022-10-01T17:16:58.416Z,16.33
2022-10-01T17:19:27.326Z,18.65
2022-10-01T17:21:55.193Z,59.03
2022-10-01T17:24:22.394Z,25.27
2022-10-01T17:26:49.737Z,8.35
2022-10-01T17:29:17.689Z,9.20
2022-10-01T17:31:45.094Z,15.82
2022-10-01T17:34:12.677Z,5.72
2022-10-01T17:36:41.895Z,22.85
2022-10-01T17:39:09.392Z,7.63
2022-10-01T17:41:36.726Z,6.75
2022-10-01T17:44:04.451Z,15.95
2022-10-01T17:46:31.970Z,21.65
2022-10-01T17:48:59.424Z,9.10
2022-10-01T17:51:27.224Z,11.15
2022-10-01T17:53:56.085Z,7.03
2022-10-01T17:56:23.426Z,6.50
2022-10-01T17:58:53.254Z,3.40
2022-10-01T18:01:22.524Z,7.80
2022-10-01T18:03:53.543Z,3.08
2022-10-01T18:06:21.373Z,8.27
2022-10-01T18:08:55.457Z,3.20
2022-10-01T18:11:26.756Z,3.05
2022-10-01T18:13:54.126Z,2.10
2022-10-01T18:16:22.193Z,9.77
2022-10-01T18:21:42.319Z,2.20
2022-10-01T18:24:09.910Z,3.58
2022-10-01T18:26:39.059Z,3.95
2022-10-01T18:29:06.748Z,8.02
2022-10-01T18:31:37.455Z,3.15
2022-10-01T18:34:15.440Z,2.20
2022-10-01T18:36:52.135Z,3.85
2022-10-01T18:39:28.116Z,11.07
2022-10-01T18:41:58.526Z,3.85
2022-10-01T18:44:26.215Z,2.03
2022-10-01T18:47:12.865Z,2.55
2022-10-01T18:50:07.443Z,10.35
2022-10-01T18:52:51.125Z,12.60
2022-10-01T18:55:58.319Z,6.78
2022-10-01T18:58:59.437Z,9.02
2022-10-01T19:01:36.269Z,4.10
2022-10-01T19:04:21.848Z,4.30
2022-10-01T19:07:02.072Z,5.45
2022-10-01T19:09:41.440Z,3.78
2022-10-01T19:12:29.380Z,4.60
2022-10-01T19:15:07.305Z,6.43
2022-10-01T19:17:47.895Z,4.05
2022-10-01T19:20:24.352Z,2.70
2022-10-01T19:23:08.849Z,3.00
2022-10-01T19:25:45.795Z,2.53
2022-10-01T19:28:31.803Z,3.92
2022-10-01T19:31:11.512Z,2.40
2022-10-01T19:33:44.999Z,2.63
2022-10-01T19:36:20.679Z,3.60
2022-10-01T19:38:50.282Z,2.50
2022-10-01T19:41:28.316Z,3.22
2022-10-01T19:44:02.204Z,2.30
2022-10-01T19:46:35.311Z,3.05
2022-10-01T19:49:12.121Z,2.63
2022-10-01T19:51:44.538Z,2.50
2022-10-01T19:54:16.172Z,2.35
2022-10-01T19:56:45.707Z,1.90
2022-10-01T19:59:15.869Z,2.42
2022-10-01T20:01:52.155Z,2.13
2022-10-01T20:04:30.770Z,2.42
2022-10-01T20:07:04.984Z,2.50
2022-10-01T20:09:44.577Z,2.22
2022-10-01T20:12:26.996Z,3.20
2022-10-01T20:15:03.492Z,2.67
2022-10-01T20:17:40.263Z,2.60
2022-10-01T20:20:16.251Z,2.28
2022-10-01T20:22:56.306Z,2.17
2022-10-01T20:25:31.159Z,2.70
2022-10-01T20:28:08.310Z,2.20
2022-10-01T20:30:44.410Z,2.25
2022-10-01T20:33:21.272Z,1.92
2022-10-01T20:35:59.628Z,2.33
2022-10-01T20:38:32.836Z,4.85
2022-10-01T20:41:05.789Z,3.15
2022-10-01T20:43:37.065Z,3.40
2022-10-01T20:46:11.601Z,2.33
2022-10-01T20:48:43.922Z,2.20
2022-10-01T20:51:16.201Z,2.80
2022-10-01T20:53:50.706Z,2.30
2022-10-01T20:56:23.257Z,2.50
2022-10-01T20:58:56.090Z,3.03
2022-10-01T21:01:27.246Z,2.38
2022-10-01T21:04:01.338Z,2.80
2022-10-01T21:06:34.885Z,2.88
2022-10-01T21:09:09.961Z,3.53
2022-10-01T21:11:43.361Z,2.38
2022-10-01T21:14:16.556Z,2.30
2022-10-01T21:17:04.906Z,2.50
2022-10-01T21:19:46.060Z,2.10
2022-10-01T21:22:26.624Z,2.20
2022-10-01T21:25:02.143Z,1.92
2022-10-01T21:27:48.010Z,1.95
2022-10-01T21:30:17.241Z,2.00
2022-10-01T21:33:10.595Z,2.05
2022-10-01T21:35:48.739Z,1.88
2022-10-01T21:38:30.567Z,2.20
2022-10-01T21:41:28.770Z,1.95
2022-10-01T21:44:18.793Z,1.95
2022-10-01T21:46:54.364Z,2.20
2022-10-01T21:49:31.859Z,1.90
2022-10-01T21:52:10.474Z,1.83
2022-10-01T21:55:05.899Z,2.30
2022-10-01T21:57:47.185Z,2.13
2022-10-01T22:00:18.122Z,1.80
2022-10-01T22:02:57.214Z,1.80
2022-10-01T22:05:35.060Z,2.08
2022-10-01T22:08:17.840Z,1.90
2022-10-01T22:10:48.578Z,2.15
2022-10-01T22:13:19.813Z,1.90
2022-10-01T22:15:51.352Z,1.98
2022-10-01T22:18:28.236Z,2.00
2022-10-01T22:20:59.298Z,2.00
2022-10-01T22:23:32.117Z,2.00
2022-10-01T22:26:03.570Z,2.10
2022-10-01T22:28:36.442Z,1.90
2022-10-01T22:31:09.104Z,1.58
2022-10-01T22:33:41.948Z,1.60
2022-10-01T22:36:15.815Z,1.40
2022-10-01T22:38:49.550Z,1.40
2022-10-01T22:41:27.373Z,1.42
2022-10-01T22:43:55.001Z,1.20
2022-10-01T22:46:50.234Z,1.27
2022-10-01T22:49:29.808Z,1.38
2022-10-01T22:52:09.743Z,1.50
2022-10-01T22:54:53.481Z,1.50
2022-10-01T22:57:35.423Z,1.13
2022-10-01T23:00:05.834Z,1.50
2022-10-01T23:02:38.953Z,1.40
2022-10-01T23:05:15.767Z,1.30
2022-10-01T23:07:56.570Z,1.20
2022-10-01T23:10:32.521Z,1.40
2022-10-01T23:13:12.291Z,1.60
2022-10-01T23:15:45.657Z,1.20
2022-10-01T23:18:24.868Z,1.33
2022-10-01T23:21:16.618Z,1.10
2022-10-01T23:23:55.617Z,1.50
2022-10-01T23:26:35.035Z,1.40
2022-10-01T23:29:17.889Z,1.10
2022-10-01T23:31:54.125Z,1.48
2022-10-01T23:34:29.646Z,1.38
2022-10-01T23:37:12.625Z,1.05
2022-10-01T23:39:48.033Z,1.20
2022-10-01T23:42:27.601Z,1.27
2022-10-01T23:45:04.977Z,1.30
2022-10-01T23:47:40.027Z,1.45
2022-10-01T23:50:17.296Z,1.52
2022-10-01T23:52:51.507Z,1.05
2022-10-01T23:55:26.161Z,1.00
2022-10-01T23:58:03.150Z,1.30
